Time;durP1;ratioP1;P1;durP2;ratioP2;P2;SDS_P1;SDS_P2;PMS_P1;PMS_P2;Temp;Humidity;BMP_temperature;BMP_pressure;BME280_temperature;BME280_humidity;BME280_pressure;Samples;Min_cycle;Max_cycle;Signal;HPM_P1;HPM_P2
2023/01/21 00:00:04;;;;;;;7.22;5.53;;;1.90;99.90;;;;;;5054266;28;20019;-72
2023/01/21 00:02:31;;;;;;;1.27;1.27;;;1.70;99.90;;;;;;5055494;28;20445;-72
2023/01/21 00:04:56;;;;;;;2.67;1.48;;;1.80;99.90;;;;;;5055124;28;20049;-72
2023/01/21 00:07:24;;;;;;;1.08;1.02;;;1.70;99.90;;;;;;5055339;28;20033;-72
2023/01/21 00:09:50;;;;;;;6.63;3.78;;;1.70;99.90;;;;;;5055073;28;20013;-72
2023/01/21 00:12:16;;;;;;;1.50;1.27;;;1.60;99.90;;;;;;5055176;28;20512;-72
2023/01/21 00:14:42;;;;;;;2.85;1.90;;;1.60;99.90;;;;;;5053789;28;20021;-72
2023/01/21 00:17:07;;;;;;;21.48;3.17;;;1.60;99.90;;;;;;5054799;28;20037;-73
2023/01/21 00:19:33;;;;;;;0.95;0.95;;;1.60;99.90;;;;;;5053429;28;20025;-73
2023/01/21 00:21:59;;;;;;;4.85;2.85;;;1.70;99.90;;;;;;5053464;28;20036;-72
2023/01/21 00:24:25;;;;;;;1.08;0.88;;;1.60;99.90;;;;;;5055084;28;20398;-72
2023/01/21 00:26:51;;;;;;;12.65;3.40;;;1.70;99.90;;;;;;5053361;28;20036;-72
2023/01/21 00:29:17;;;;;;;4.57;1.80;;;1.80;99.90;;;;;;5054857;28;20035;-73
2023/01/21 00:31:43;;;;;;;2.38;2.00;;;1.80;99.90;;;;;;5054659;28;20488;-73
2023/01/21 00:34:10;;;;;;;2.22;1.67;;;1.80;99.90;;;;;;5053114;28;20032;-72
2023/01/21 00:36:35;;;;;;;5.63;2.72;;;1.70;99.90;;;;;;5053011;28;20044;-72
2023/01/21 00:39:01;;;;;;;1.27;1.27;;;1.80;99.90;;;;;;5054751;28;20044;-73
2023/01/21 00:41:27;;;;;;;1.40;1.25;;;1.90;99.90;;;;;;5054493;28;20063;-72
2023/01/21 00:43:53;;;;;;;8.73;6.18;;;2.00;99.90;;;;;;5054208;28;20040;-72
2023/01/21 00:46:19;;;;;;;2.50;2.30;;;1.90;99.90;;;;;;5053565;28;20037;-72
2023/01/21 00:48:45;;;;;;;12.25;6.00;;;1.90;99.90;;;;;;5053926;28;20039;-72
2023/01/21 00:51:11;;;;;;;4.10;2.08;;;1.80;99.90;;;;;;5054303;28;20032;-71
2023/01/21 00:53:40;;;;;;;7.07;2.55;;;1.80;99.90;;;;;;5054266;28;20451;-72
2023/01/21 00:56:10;;;;;;;1.73;1.48;;;1.70;99.90;;;;;;5054181;28;20473;-72
2023/01/21 00:58:36;;;;;;;7.97;6.97;;;1.70;99.90;;;;;;5054098;28;20037;-71
2023/01/21 01:01:15;;;;;;;15.82;8.05;;;1.70;99.90;;;;;;5054187;28;20017;-71
2023/01/21 01:03:41;;;;;;;12.13;5.13;;;1.60;99.90;;;;;;5053804;28;20025;-71
2023/01/21 01:06:15;;;;;;;2.50;2.25;;;1.60;99.90;;;;;;5053761;28;20732;-72
2023/01/21 01:08:42;;;;;;;8.48;5.38;;;1.60;99.90;;;;;;5052692;28;20036;-71
2023/01/21 01:11:08;;;;;;;2.92;2.63;;;1.50;99.90;;;;;;5052873;28;20025;-71
2023/01/21 01:13:35;;;;;;;0.68;0.68;;;1.50;99.90;;;;;;5054097;28;20021;-71
2023/01/21 01:16:02;;;;;;;13.73;6.70;;;1.50;99.90;;;;;;5052636;28;20024;-71
2023/01/21 01:18:29;;;;;;;5.78;2.65;;;1.40;99.90;;;;;;5053425;28;20045;-72
2023/01/21 01:20:55;;;;;;;11.15;5.72;;;1.50;99.90;;;;;;5053931;28;20013;-73
2023/01/21 01:23:21;;;;;;;10.32;5.88;;;1.50;99.90;;;;;;5053779;28;20040;-72
2023/01/21 01:26:02;;;;;;;8.32;5.97;;;1.40;99.90;;;;;;5053779;28;20032;-71
2023/01/21 01:28:29;;;;;;;2.67;2.10;;;1.40;99.90;;;;;;5053383;28;20032;-72
2023/01/21 01:30:55;;;;;;;1.20;0.75;;;1.40;99.90;;;;;;5053728;28;20075;-72
2023/01/21 01:33:22;;;;;;;3.97;3.65;;;1.50;99.90;;;;;;5051995;28;20082;-72
2023/01/21 01:35:48;;;;;;;7.43;3.88;;;1.50;99.90;;;;;;5053405;28;20480;-71
2023/01/21 01:38:15;;;;;;;23.48;7.95;;;1.40;99.90;;;;;;5052157;28;20443;-72
2023/01/21 01:40:41;;;;;;;13.48;4.75;;;1.30;99.90;;;;;;5052060;28;20032;-71
2023/01/21 01:43:22;;;;;;;7.72;3.55;;;1.40;99.90;;;;;;5053262;28;20058;-72
2023/01/21 01:45:48;;;;;;;2.83;2.30;;;1.40;99.90;;;;;;5053155;28;20564;-72
2023/01/21 01:48:28;;;;;;;2.28;2.05;;;1.40;99.90;;;;;;5051896;28;20108;-72
2023/01/21 01:51:02;;;;;;;14.60;5.32;;;1.40;99.90;;;;;;5052810;28;20116;-72
2023/01/21 01:53:29;;;;;;;7.05;3.45;;;1.30;99.90;;;;;;5053347;28;20029;-72
2023/01/21 01:55:56;;;;;;;12.95;3.00;;;1.30;99.90;;;;;;5052965;28;20496;-71
2023/01/21 01:58:22;;;;;;;14.93;6.32;;;1.30;99.90;;;;;;5051740;28;20489;-71
2023/01/21 02:00:48;;;;;;;1.00;1.00;;;1.30;99.90;;;;;;5052751;28;20037;-72
2023/01/21 02:06:00;;;;;;;7.10;4.00;;;1.40;99.90;;;;;;5051250;28;20393;-71
2023/01/21 02:08:28;;;;;;;0.13;0.13;;;1.40;99.90;;;;;;5052579;28;20465;-72
2023/01/21 02:10:55;;;;;;;2.35;1.67;;;1.40;99.90;;;;;;5052891;28;20031;-72
2023/01/21 02:13:26;;;;;;;5.63;3.58;;;1.40;99.90;;;;;;5052616;28;20057;-72
2023/01/21 02:16:09;;;;;;;6.53;1.55;;;1.30;99.90;;;;;;5052641;28;20044;-72
2023/01/21 02:18:54;;;;;;;0.65;0.52;;;1.30;99.90;;;;;;5039375;28;20086;-71
2023/01/21 02:21:52;;;;;;;4.38;2.90;;;1.30;99.90;;;;;;5050828;28;20037;-72
2023/01/21 02:24:46;;;;;;;6.68;2.97;;;1.30;99.90;;;;;;5051235;28;20039;-73
2023/01/21 02:27:40;;;;;;;0.10;0.10;;;1.20;99.90;;;;;;5052601;28;20096;-72
2023/01/21 02:30:11;;;;;;;1.27;0.73;;;1.30;99.90;;;;;;5052282;28;20422;-73
2023/01/21 02:33:02;;;;;;;0.50;0.50;;;1.60;99.90;;;;;;5052848;28;20021;-73
2023/01/21 02:35:49;;;;;;;3.10;2.88;;;1.50;99.90;;;;;;5052314;28;20033;-73
2023/01/21 02:38:24;;;;;;;6.97;3.63;;;1.30;99.90;;;;;;5050867;28;20048;-73
2023/01/21 02:40:58;;;;;;;10.65;5.80;;;1.30;99.90;;;;;;5052699;28;20037;-73
2023/01/21 02:43:39;;;;;;;9.45;5.35;;;1.20;99.90;;;;;;5052636;28;20025;-73
2023/01/21 02:46:11;;;;;;;1.02;1.02;;;1.20;99.90;;;;;;5052293;28;20028;-72
2023/01/21 02:48:55;;;;;;;0.47;0.47;;;1.30;99.90;;;;;;5051009;28;20377;-72
2023/01/21 02:51:22;;;;;;;0.68;0.68;;;1.30;99.90;;;;;;5052683;28;20029;-72
2023/01/21 02:53:48;;;;;;;7.57;2.47;;;1.40;99.90;;;;;;5052273;28;20025;-72
2023/01/21 02:56:17;;;;;;;10.05;3.33;;;1.40;99.90;;;;;;5051096;28;20466;-72
2023/01/21 02:58:54;;;;;;;6.18;5.05;;;1.30;99.90;;;;;;5052235;28;20106;-72
2023/01/21 03:01:59;;;;;;;3.00;1.73;;;1.20;99.90;;;;;;5051230;28;20041;-72
2023/01/21 03:05:08;;;;;;;1.20;1.20;;;1.20;99.90;;;;;;5050067;28;20198;-72
2023/01/21 03:07:41;;;;;;;3.33;2.08;;;1.20;99.90;;;;;;5003330;28;20485;-72
2023/01/21 03:10:37;;;;;;;7.13;1.52;;;1.30;99.90;;;;;;5031155;28;20481;-72
2023/01/21 03:13:11;;;;;;;5.85;3.10;;;1.20;99.90;;;;;;5042027;28;20025;-72
2023/01/21 03:18:42;;;;;;;1.45;0.75;;;1.30;99.90;;;;;;5052112;28;20040;-72
2023/01/21 03:21:14;;;;;;;6.30;2.13;;;1.20;99.90;;;;;;5055893;28;20060;-72
2023/01/21 03:23:46;;;;;;;0.20;0.20;;;1.20;99.90;;;;;;5056262;28;20025;-72
2023/01/21 03:26:15;;;;;;;5.77;2.87;;;1.20;99.90;;;;;;5055822;28;20052;-72
2023/01/21 03:28:49;;;;;;;1.13;1.05;;;1.20;99.90;;;;;;5055651;28;20029;-72
2023/01/21 03:31:22;;;;;;;11.48;7.70;;;1.10;99.90;;;;;;5055553;28;20457;-72
2023/01/21 03:33:51;;;;;;;6.70;3.95;;;1.00;99.90;;;;;;5055929;28;20106;-72
2023/01/21 03:36:25;;;;;;;10.85;5.70;;;0.90;99.90;;;;;;5055474;28;20021;-72
2023/01/21 03:38:55;;;;;;;1.65;1.55;;;0.90;99.90;;;;;;5054484;28;20037;-73
2023/01/21 03:41:23;;;;;;;2.92;2.47;;;1.00;99.90;;;;;;5055585;28;20052;-72
2023/01/21 03:43:50;;;;;;;12.70;4.90;;;1.00;99.90;;;;;;5054253;28;20496;-72
2023/01/21 03:46:26;;;;;;;10.88;5.93;;;0.90;99.90;;;;;;5055293;28;20024;-72
2023/01/21 03:49:01;;;;;;;2.72;2.03;;;0.90;99.90;;;;;;5054530;28;20028;-73
2023/01/21 03:51:38;;;;;;;4.03;2.60;;;1.00;99.90;;;;;;5055241;28;20025;-73
2023/01/21 03:54:03;;;;;;;11.77;4.57;;;0.90;99.90;;;;;;5054539;28;20029;-73
2023/01/21 03:56:29;;;;;;;4.50;4.10;;;0.90;99.90;;;;;;5055168;28;20025;-72
2023/01/21 03:58:55;;;;;;;4.55;1.65;;;0.90;99.90;;;;;;5055373;28;20048;-72
2023/01/21 04:01:21;;;;;;;4.43;1.63;;;1.00;99.90;;;;;;5054160;28;20029;-73
2023/01/21 04:03:48;;;;;;;6.88;5.35;;;1.00;99.90;;;;;;5055302;28;20028;-72
2023/01/21 04:06:21;;;;;;;1.73;1.63;;;1.10;99.90;;;;;;5055151;28;20025;-71
2023/01/21 04:08:47;;;;;;;9.75;2.95;;;1.00;99.90;;;;;;5055184;28;20183;-72
2023/01/21 04:11:13;;;;;;;11.15;3.45;;;0.90;99.90;;;;;;5055123;28;20021;-72
2023/01/21 04:13:40;;;;;;;5.40;3.38;;;0.90;99.90;;;;;;5036939;28;20035;-72
2023/01/21 04:16:06;;;;;;;9.32;5.20;;;1.00;99.90;;;;;;5055096;28;20469;-72
2023/01/21 04:18:32;;;;;;;5.82;2.85;;;0.90;99.90;;;;;;5053457;28;20039;-72
2023/01/21 04:20:58;;;;;;;11.90;4.55;;;1.00;99.90;;;;;;5055114;28;20025;-72
2023/01/21 04:23:23;;;;;;;2.80;1.90;;;0.90;99.90;;;;;;5054106;28;20060;-72
2023/01/21 04:25:51;;;;;;;8.70;3.47;;;0.90;99.90;;;;;;5053324;28;20049;-72
2023/01/21 04:28:17;;;;;;;10.20;6.68;;;0.90;99.90;;;;;;5055213;28;20424;-72
2023/01/21 04:30:43;;;;;;;20.33;8.10;;;0.80;99.90;;;;;;5053184;28;20068;-71
2023/01/21 04:33:09;;;;;;;8.95;4.97;;;0.60;99.90;;;;;;5053344;28;20049;-72
2023/01/21 04:35:35;;;;;;;4.15;3.42;;;0.60;99.90;;;;;;5054799;28;20025;-72
2023/01/21 04:38:01;;;;;;;21.88;8.15;;;0.60;99.90;;;;;;5054360;28;20045;-72
2023/01/21 04:40:27;;;;;;;3.83;3.25;;;0.60;99.90;;;;;;5053045;28;20033;-72
2023/01/21 04:42:52;;;;;;;9.50;3.92;;;0.60;99.90;;;;;;5054278;28;20037;-73
2023/01/21 04:45:18;;;;;;;3.50;2.83;;;0.70;99.90;;;;;;5053319;28;20063;-72
2023/01/21 04:47:44;;;;;;;2.10;0.77;;;0.70;99.90;;;;;;5054336;28;20025;-73
2023/01/21 04:50:12;;;;;;;5.18;2.40;;;0.80;99.90;;;;;;5054445;28;20082;-73
2023/01/21 04:52:39;;;;;;;5.97;1.88;;;0.70;99.90;;;;;;5053248;28;20025;-72
2023/01/21 04:55:05;;;;;;;8.77;2.50;;;0.80;99.90;;;;;;5053772;28;20033;-72
2023/01/21 04:57:31;;;;;;;4.13;1.70;;;0.90;99.90;;;;;;5053167;28;20028;-73
2023/01/21 04:59:57;;;;;;;7.10;4.55;;;0.70;99.90;;;;;;5054012;28;20120;-73
2023/01/21 05:02:22;;;;;;;7.70;1.63;;;0.70;99.90;;;;;;5036031;28;20025;-72
2023/01/21 05:04:48;;;;;;;3.92;1.00;;;0.70;99.90;;;;;;5053884;28;20024;-73
2023/01/21 05:07:14;;;;;;;2.47;2.08;;;0.70;99.90;;;;;;5053445;28;20040;-73
2023/01/21 05:09:40;;;;;;;4.75;1.95;;;0.70;99.90;;;;;;5053825;28;20028;-73
2023/01/21 05:12:07;;;;;;;4.88;2.55;;;0.80;99.90;;;;;;5052599;28;20503;-72
2023/01/21 05:14:33;;;;;;;0.65;0.65;;;0.70;99.90;;;;;;5053875;28;20028;-72
2023/01/21 05:16:58;;;;;;;5.68;4.15;;;0.70;99.90;;;;;;5053511;28;20028;-72
2023/01/21 05:19:24;;;;;;;5.88;2.65;;;0.60;99.90;;;;;;5054004;28;20083;-72
2023/01/21 05:21:50;;;;;;;18.75;7.43;;;0.60;99.90;;;;;;5053478;28;20086;-72
2023/01/21 05:24:16;;;;;;;12.30;7.13;;;0.60;99.90;;;;;;5053647;28;20125;-72
2023/01/21 05:26:42;;;;;;;13.40;6.60;;;0.60;99.90;;;;;;5053827;28;20067;-71
2023/01/21 05:29:08;;;;;;;1.55;1.45;;;0.60;99.90;;;;;;5053588;28;20024;-72
2023/01/21 05:31:34;;;;;;;0.38;0.38;;;0.60;99.90;;;;;;5053591;28;20127;-72
2023/01/21 05:33:59;;;;;;;14.35;9.23;;;0.50;99.90;;;;;;5052104;28;20112;-72
2023/01/21 05:36:25;;;;;;;4.85;2.50;;;0.60;99.90;;;;;;5052344;28;20033;-72
2023/01/21 05:38:51;;;;;;;8.15;6.13;;;0.60;99.90;;;;;;5052778;28;20045;-73
2023/01/21 05:41:17;;;;;;;5.18;2.97;;;0.60;99.90;;;;;;5053406;28;20539;-72
2023/01/21 05:43:43;;;;;;;3.28;1.23;;;0.50;99.90;;;;;;5052569;28;20128;-72
2023/01/21 05:46:09;;;;;;;0.10;0.10;;;0.50;99.90;;;;;;5053145;28;20104;-73
2023/01/21 05:48:35;;;;;;;12.52;6.22;;;0.60;99.90;;;;;;5052100;28;20737;-73
2023/01/21 05:51:01;;;;;;;9.32;3.10;;;0.50;99.90;;;;;;5052174;28;20029;-72
2023/01/21 05:53:26;;;;;;;7.88;4.68;;;0.50;99.90;;;;;;5052861;28;20108;-72
2023/01/21 05:55:55;;;;;;;4.68;3.55;;;0.40;99.90;;;;;;5051933;28;20036;-72
2023/01/21 05:58:23;;;;;;;0.85;0.85;;;0.50;99.90;;;;;;5052904;28;20064;-73
2023/01/21 06:00:49;;;;;;;5.55;2.22;;;0.50;99.90;;;;;;5053198;28;20611;-72
2023/01/21 06:03:16;;;;;;;1.50;1.40;;;0.50;99.90;;;;;;5053077;28;20052;-72
2023/01/21 06:05:42;;;;;;;5.22;0.52;;;0.50;99.90;;;;;;5051636;28;20040;-73
2023/01/21 06:08:08;;;;;;;4.05;3.67;;;0.50;99.90;;;;;;5052509;28;20124;-73
2023/01/21 06:10:34;;;;;;;10.38;3.85;;;0.30;99.90;;;;;;5051695;28;20048;-73
2023/01/21 06:13:00;;;;;;;2.25;1.88;;;0.40;99.90;;;;;;5051776;28;20052;-73
2023/01/21 06:15:26;;;;;;;0.10;0.10;;;0.50;99.90;;;;;;5052859;28;20031;-72
2023/01/21 06:17:52;;;;;;;0.73;0.73;;;0.40;99.90;;;;;;5052924;28;20577;-73
2023/01/21 06:20:19;;;;;;;0.60;0.60;;;0.50;99.90;;;;;;5052539;28;20021;-72
2023/01/21 06:22:45;;;;;;;1.13;0.88;;;0.50;99.90;;;;;;5051272;28;20016;-73
2023/01/21 06:25:11;;;;;;;21.27;2.20;;;0.50;99.90;;;;;;5052690;28;20055;-72
2023/01/21 06:27:37;;;;;;;15.27;1.75;;;0.40;99.90;;;;;;5052943;28;20056;-71
2023/01/21 06:30:05;;;;;;;6.43;2.83;;;0.40;99.90;;;;;;5052582;28;20025;-72
2023/01/21 06:32:31;;;;;;;0.57;0.57;;;0.40;99.90;;;;;;5051360;28;20029;-72
2023/01/21 06:34:57;;;;;;;0.43;0.43;;;0.40;99.90;;;;;;5051199;28;20392;-72
2023/01/21 06:37:22;;;;;;;5.93;3.17;;;0.50;99.90;;;;;;5050998;28;20120;-73
2023/01/21 06:39:48;;;;;;;0.77;0.77;;;0.50;99.90;;;;;;5052494;28;20499;-73
2023/01/21 06:42:16;;;;;;;4.93;2.30;;;0.40;99.90;;;;;;5052476;28;20036;-72
2023/01/21 06:44:43;;;;;;;1.25;1.15;;;0.40;99.90;;;;;;5051123;28;20500;-72
2023/01/21 06:47:09;;;;;;;1.98;1.80;;;0.70;99.90;;;;;;5052605;28;20057;-72
2023/01/21 06:49:34;;;;;;;0.50;0.50;;;0.60;99.90;;;;;;5052326;28;20028;-72
2023/01/21 06:52:01;;;;;;;5.00;2.97;;;0.50;99.90;;;;;;5052328;28;20025;-72
2023/01/21 06:54:26;;;;;;;1.13;1.05;;;0.70;99.90;;;;;;5055209;28;20060;-72
2023/01/21 06:56:52;;;;;;;1.95;1.55;;;0.60;99.90;;;;;;5055090;28;20121;-72
2023/01/21 06:59:18;;;;;;;1.73;1.58;;;0.70;99.90;;;;;;5050901;28;20037;-72
2023/01/21 07:01:44;;;;;;;4.50;2.28;;;0.80;99.90;;;;;;5053819;28;20075;-73
2023/01/21 07:04:10;;;;;;;5.43;3.85;;;0.70;99.90;;;;;;5043845;28;20043;-72
2023/01/21 07:06:36;;;;;;;12.00;6.03;;;0.70;99.90;;;;;;5051061;28;20451;-72
2023/01/21 07:09:03;;;;;;;3.22;0.80;;;0.60;99.90;;;;;;5053898;28;20032;-72
2023/01/21 07:11:31;;;;;;;10.65;4.60;;;0.60;99.90;;;;;;5049727;28;20400;-72
2023/01/21 07:13:57;;;;;;;0.50;0.50;;;0.60;99.90;;;;;;5055785;28;20059;-72
2023/01/21 07:16:23;;;;;;;0.10;0.10;;;0.60;99.90;;;;;;5060684;28;20060;-73
2023/01/21 07:18:49;;;;;;;12.45;4.15;;;0.70;99.90;;;;;;5059895;28;20080;-73
2023/01/21 07:21:15;;;;;;;0.68;0.68;;;0.50;99.90;;;;;;5054970;28;20025;-72
2023/01/21 07:23:41;;;;;;;1.13;1.08;;;0.60;99.90;;;;;;5055519;28;20469;-72
2023/01/21 07:26:07;;;;;;;1.30;1.20;;;0.60;99.90;;;;;;5048820;28;20036;-72
2023/01/21 07:28:33;;;;;;;3.22;3.03;;;0.50;99.90;;;;;;5059176;28;20028;-73
2023/01/21 07:30:59;;;;;;;6.65;4.22;;;0.50;99.90;;;;;;5051330;28;20021;-72
2023/01/21 07:33:25;;;;;;;6.30;4.90;;;0.40;99.90;;;;;;5058264;28;20571;-73
2023/01/21 07:35:51;;;;;;;2.03;1.42;;;0.50;99.90;;;;;;5054247;28;20025;-73
2023/01/21 07:38:17;;;;;;;16.50;3.60;;;0.60;99.90;;;;;;5069413;28;20048;-73
2023/01/21 07:40:42;;;;;;;5.32;3.45;;;0.50;99.90;;;;;;5067088;28;20016;-73
2023/01/21 07:43:08;;;;;;;2.15;1.88;;;0.40;99.90;;;;;;5061710;28;20041;-72
2023/01/21 07:45:34;;;;;;;7.00;5.57;;;0.40;99.90;;;;;;5048308;28;20025;-73
2023/01/21 07:48:00;;;;;;;0.28;0.28;;;0.50;99.90;;;;;;5037755;28;20044;-72
2023/01/21 07:50:26;;;;;;;0.50;0.50;;;0.60;99.90;;;;;;5065408;28;20021;-73
2023/01/21 07:52:56;;;;;;;0.10;0.10;;;0.50;99.90;;;;;;5055085;28;20491;-73
2023/01/21 07:55:21;;;;;;;5.32;1.13;;;0.60;99.90;;;;;;5052351;28;20021;-72
2023/01/21 07:57:47;;;;;;;4.32;2.35;;;0.60;99.90;;;;;;5056037;28;20040;-72
2023/01/21 08:00:14;;;;;;;1.75;1.17;;;0.50;99.90;;;;;;5068765;28;20029;-72
2023/01/21 08:02:40;;;;;;;45.05;5.38;;;0.70;99.90;;;;;;5068487;28;20103;-72
2023/01/21 08:05:06;;;;;;;2.72;2.47;;;0.60;99.90;;;;;;5052657;28;20178;-72
2023/01/21 08:07:32;;;;;;;3.13;0.60;;;0.50;99.90;;;;;;5057975;28;20044;-72
2023/01/21 08:09:58;;;;;;;1.00;1.00;;;0.70;99.90;;;;;;5055343;28;20476;-72
2023/01/21 08:12:23;;;;;;;6.68;4.63;;;0.70;99.90;;;;;;5069527;28;20021;-72
2023/01/21 08:14:49;;;;;;;1.60;1.50;;;0.60;99.90;;;;;;5065658;28;20033;-72
2023/01/21 08:17:15;;;;;;;6.68;4.10;;;0.60;99.90;;;;;;5059998;28;20040;-72
2023/01/21 08:19:41;;;;;;;12.07;6.80;;;0.70;99.90;;;;;;5056339;28;20469;-72
2023/01/21 08:22:06;;;;;;;7.18;6.25;;;0.60;99.90;;;;;;5040555;28;20025;-72
2023/01/21 08:24:32;;;;;;;0.10;0.10;;;0.60;99.90;;;;;;5069322;28;20025;-72
2023/01/21 08:26:59;;;;;;;3.45;3.15;;;0.60;99.90;;;;;;5057999;28;20023;-72
2023/01/21 08:29:25;;;;;;;1.58;1.48;;;0.60;99.90;;;;;;5053262;28;20073;-71
2023/01/21 08:31:51;;;;;;;17.08;3.05;;;0.70;99.90;;;;;;5053225;28;20473;-71
2023/01/21 08:34:18;;;;;;;11.88;7.65;;;0.80;99.90;;;;;;5054359;28;20033;-71
2023/01/21 08:36:43;;;;;;;2.83;2.05;;;0.90;99.90;;;;;;5052102;28;20025;-72
2023/01/21 08:39:12;;;;;;;0.20;0.20;;;0.90;99.90;;;;;;5054820;28;20446;-72
2023/01/21 08:41:39;;;;;;;18.85;9.55;;;1.00;99.90;;;;;;5054127;28;20025;-72
2023/01/21 08:44:06;;;;;;;6.20;4.07;;;0.90;99.90;;;;;;5054585;28;20039;-72
2023/01/21 08:46:33;;;;;;;2.83;2.15;;;1.10;99.90;;;;;;5054157;28;20036;-73
2023/01/21 08:48:59;;;;;;;0.55;0.55;;;1.00;99.90;;;;;;5054392;28;20025;-72
2023/01/21 08:51:25;;;;;;;25.40;6.50;;;1.00;99.90;;;;;;5053927;28;20029;-72
2023/01/21 08:53:51;;;;;;;8.50;3.22;;;1.10;99.90;;;;;;5054561;28;20036;-72
2023/01/21 08:56:17;;;;;;;0.45;0.32;;;1.10;99.90;;;;;;5052959;28;20029;-72
2023/01/21 08:58:43;;;;;;;1.33;1.23;;;1.30;99.90;;;;;;5054006;28;20064;-72
2023/01/21 09:01:11;;;;;;;6.57;4.45;;;1.30;99.90;;;;;;5053257;28;20025;-72
2023/01/21 09:03:37;;;;;;;1.50;1.40;;;1.30;99.90;;;;;;5052155;28;20138;-72
2023/01/21 09:06:05;;;;;;;4.57;2.55;;;1.40;99.90;;;;;;5054026;28;20017;-72
2023/01/21 09:08:31;;;;;;;2.50;2.30;;;1.60;99.90;;;;;;5053845;28;20028;-72
2023/01/21 09:11:01;;;;;;;1.38;1.27;;;1.60;99.90;;;;;;5054033;28;20078;-72
2023/01/21 09:13:28;;;;;;;1.52;1.13;;;1.70;99.90;;;;;;5053880;28;20040;-72
2023/01/21 09:15:54;;;;;;;0.63;0.63;;;1.60;99.90;;;;;;5052640;28;20465;-72
2023/01/21 09:18:21;;;;;;;1.38;1.30;;;2.20;99.90;;;;;;5051588;28;20041;-72
2023/01/21 09:20:47;;;;;;;5.25;1.60;;;2.30;99.90;;;;;;5054018;28;20049;-72
2023/01/21 09:23:25;;;;;;;1.35;1.00;;;2.50;99.90;;;;;;5052730;28;20069;-72
2023/01/21 09:25:52;;;;;;;7.88;4.28;;;2.70;99.90;;;;;;5053133;28;20013;-71
2023/01/21 09:28:19;;;;;;;0.00;0.00;;;2.70;99.90;;;;;;5053695;28;20108;-72
2023/01/21 09:30:46;;;;;;;0.00;0.00;;;2.70;99.90;;;;;;5053284;28;20033;-72
2023/01/21 09:33:13;;;;;;;0.30;0.30;;;3.30;99.90;;;;;;5035686;28;20020;-72
2023/01/21 09:35:39;;;;;;;0.82;0.82;;;3.60;99.90;;;;;;5053486;28;20432;-72
2023/01/21 09:38:06;;;;;;;0.40;0.40;;;4.20;99.90;;;;;;5048115;28;20120;-72
2023/01/21 09:40:32;;;;;;;0.10;0.10;;;4.70;99.90;;;;;;5052054;28;20512;-72
2023/01/21 09:43:08;;;;;;;3.38;3.17;;;5.10;99.90;;;;;;5052009;28;20079;-72
2023/01/21 09:45:34;;;;;;;0.50;0.50;;;4.90;99.90;;;;;;5053086;28;20112;-72
2023/01/21 09:48:01;;;;;;;0.38;0.38;;;5.20;99.90;;;;;;5051866;28;20044;-72
2023/01/21 09:50:27;;;;;;;1.75;1.55;;;5.30;99.90;;;;;;5053286;28;20013;-72
2023/01/21 09:53:03;;;;;;;0.85;0.85;;;4.80;99.90;;;;;;5053034;28;20062;-71
2023/01/21 09:55:40;;;;;;;0.40;0.40;;;4.70;99.90;;;;;;5053003;28;20044;-71
2023/01/21 09:58:12;;;;;;;1.30;0.57;;;4.50;99.90;;;;;;5048917;28;20063;-72
2023/01/21 10:00:43;;;;;;;0.10;0.10;;;4.80;99.90;;;;;;5052962;28;20388;-71
2023/01/21 10:03:21;;;;;;;0.10;0.10;;;5.40;99.90;;;;;;5051570;28;20029;-71
2023/01/21 10:05:49;;;;;;;4.45;2.03;;;5.50;99.90;;;;;;5051645;28;20040;-71
2023/01/21 10:08:33;;;;;;;6.03;3.10;;;5.80;99.90;;;;;;5053084;28;20116;-72
2023/01/21 10:11:58;;;;;;;2.88;2.65;;;6.30;99.90;;;;;;5051775;28;20036;-72
2023/01/21 10:15:09;;;;;;;1.30;0.90;;;6.50;99.90;;;;;;5013625;28;20168;-72
2023/01/21 10:17:55;;;;;;;0.10;0.10;;;7.00;99.90;;;;;;5002076;28;20515;-72
2023/01/21 10:20:32;;;;;;;6.10;3.47;;;7.10;99.90;;;;;;5031328;28;20440;-71
2023/01/21 10:23:03;;;;;;;1.95;1.85;;;6.50;99.90;;;;;;5052885;28;20028;-71
2023/01/21 10:25:31;;;;;;;0.70;0.68;;;6.80;99.90;;;;;;5051217;28;20116;-71
2023/01/21 10:28:01;;;;;;;1.60;1.52;;;7.20;99.90;;;;;;5052373;28;20021;-72
2023/01/21 10:30:35;;;;;;;4.45;3.88;;;7.50;99.90;;;;;;5050966;28;20476;-71
2023/01/21 10:33:01;;;;;;;4.88;2.58;;;7.70;99.90;;;;;;5052649;28;20029;-71
2023/01/21 10:35:48;;;;;;;8.98;3.75;;;7.80;99.90;;;;;;5052339;28;20473;-72
2023/01/21 10:38:40;;;;;;;1.50;1.45;;;7.80;99.90;;;;;;5052138;28;20041;-71
2023/01/21 10:41:38;;;;;;;2.38;1.85;;;7.80;99.90;;;;;;5052449;28;20386;-71
2023/01/21 10:44:19;;;;;;;3.50;2.72;;;8.70;99.90;;;;;;5052253;28;20041;-71
2023/01/21 10:46:57;;;;;;;2.42;2.28;;;8.20;99.90;;;;;;5052206;28;20029;-71
2023/01/21 10:49:35;;;;;;;1.92;1.77;;;8.40;99.90;;;;;;5052834;28;20047;-71
2023/01/21 10:52:08;;;;;;;1.08;0.95;;;8.70;99.90;;;;;;5052190;28;20025;-71
2023/01/21 10:54:55;;;;;;;1.83;1.73;;;8.10;99.90;;;;;;5052298;28;20540;-71
2023/01/21 10:57:52;;;;;;;1.88;1.73;;;7.90;99.90;;;;;;5052262;28;20480;-71
2023/01/21 11:00:28;;;;;;;8.02;2.05;;;8.50;99.90;;;;;;5052033;28;20104;-71
2023/01/21 11:02:58;;;;;;;0.98;0.98;;;8.30;99.90;;;;;;5050973;28;20094;-71
2023/01/21 11:05:25;;;;;;;0.85;0.82;;;8.40;99.90;;;;;;5052141;28;20029;-71
2023/01/21 11:07:52;;;;;;;5.00;3.30;;;8.10;99.90;;;;;;5034601;28;20431;-71
2023/01/21 11:10:25;;;;;;;8.43;4.32;;;8.30;99.90;;;;;;5052065;28;20088;-71
2023/01/21 11:12:53;;;;;;;0.35;0.35;;;8.80;99.90;;;;;;5051865;28;20029;-71
2023/01/21 11:15:20;;;;;;;2.25;1.85;;;8.20;99.90;;;;;;5052029;28;20017;-71
2023/01/21 11:17:49;;;;;;;1.20;1.08;;;8.60;99.90;;;;;;5050899;28;20431;-71
2023/01/21 11:20:41;;;;;;;5.10;2.20;;;9.40;99.90;;;;;;5051930;28;20057;-72
2023/01/21 11:23:23;;;;;;;;;;;9.10;99.90;;;;;;5052679;28;20083;-72
2023/01/21 11:25:50;;;;;;;1.83;1.67;;;9.30;99.90;;;;;;5051699;28;19916;-72
2023/01/21 11:28:28;;;;;;;12.00;1.25;;;9.60;99.90;;;;;;5049848;28;20029;-72
2023/01/21 11:31:12;;;;;;;8.07;3.47;;;9.40;99.90;;;;;;5044844;28;20032;-72
2023/01/21 11:33:39;;;;;;;1.17;0.63;;;10.00;99.90;;;;;;5052197;28;20025;-71
2023/01/21 11:36:14;;;;;;;3.92;2.08;;;9.90;99.90;;;;;;5051558;28;20025;-72
2023/01/21 11:38:40;;;;;;;2.58;2.45;;;9.30;99.90;;;;;;5050733;28;20489;-72
2023/01/21 11:41:16;;;;;;;3.53;2.70;;;9.30;99.90;;;;;;5053120;28;20025;-72
2023/01/21 11:43:51;;;;;;;3.78;2.38;;;9.00;99.90;;;;;;5055816;28;20412;-72
2023/01/21 11:46:32;;;;;;;0.50;0.50;;;9.60;99.90;;;;;;5055429;28;20040;-72
2023/01/21 11:49:07;;;;;;;2.20;1.85;;;9.90;99.90;;;;;;5055505;28;20020;-72
2023/01/21 11:51:40;;;;;;;7.28;3.25;;;10.40;99.90;;;;;;5053997;28;20036;-72
2023/01/21 11:54:22;;;;;;;3.63;2.85;;;11.00;99.90;;;;;;5055400;28;20029;-72
2023/01/21 11:56:59;;;;;;;3.60;3.00;;;11.70;99.20;;;;;;5053662;28;20021;-72
2023/01/21 11:59:40;;;;;;;0.75;0.75;;;10.70;99.20;;;;;;5054201;28;20477;-72
2023/01/21 12:02:23;;;;;;;0.80;0.80;;;10.80;99.20;;;;;;5051689;28;20104;-72
2023/01/21 12:05:03;;;;;;;0.20;0.20;;;10.70;99.70;;;;;;5053303;28;20462;-72
2023/01/21 12:07:36;;;;;;;6.38;3.78;;;10.90;99.10;;;;;;5055182;28;20103;-72
2023/01/21 12:10:07;;;;;;;4.85;2.47;;;9.70;99.90;;;;;;5054647;28;20488;-72
2023/01/21 12:13:06;;;;;;;3.50;2.67;;;9.20;99.90;;;;;;5054980;28;20075;-73
2023/01/21 12:15:47;;;;;;;5.07;1.70;;;9.80;99.90;;;;;;5055005;28;20506;-72
2023/01/21 12:18:19;;;;;;;8.18;1.98;;;10.70;99.90;;;;;;5053605;28;20044;-72
2023/01/21 12:21:02;;;;;;;6.03;5.05;;;11.00;99.90;;;;;;5054913;28;20116;-72
2023/01/21 12:23:52;;;;;;;2.53;2.33;;;11.30;99.50;;;;;;5053654;28;20040;-72
2023/01/21 12:26:35;;;;;;;4.47;3.13;;;11.50;99.20;;;;;;5054346;28;20483;-72
2023/01/21 12:29:10;;;;;;;13.68;7.00;;;11.50;99.20;;;;;;5053361;28;20021;-72
2023/01/21 12:31:42;;;;;;;5.93;3.40;;;12.20;98.10;;;;;;5054856;28;20412;-72
2023/01/21 12:34:23;;;;;;;2.08;1.98;;;12.20;98.10;;;;;;5054746;28;20021;-72
2023/01/21 12:36:56;;;;;;;7.67;5.00;;;12.20;97.90;;;;;;5052814;28;20032;-71
2023/01/21 12:39:24;;;;;;;8.65;5.93;;;10.70;99.70;;;;;;5053900;28;20048;-71
2023/01/21 12:42:04;;;;;;;14.50;5.93;;;11.40;99.40;;;;;;5054437;28;20033;-71
2023/01/21 12:44:37;;;;;;;7.78;4.40;;;11.20;98.40;;;;;;5054408;28;20041;-72
2023/01/21 12:47:13;;;;;;;6.65;5.30;;;10.20;99.90;;;;;;5054115;28;20427;-72
2023/01/21 12:49:55;;;;;;;8.98;3.20;;;9.70;99.40;;;;;;5054524;28;20120;-71
2023/01/21 12:52:29;;;;;;;7.35;3.70;;;8.50;99.90;;;;;;5054000;28;20063;-71
2023/01/21 12:55:03;;;;;;;8.02;5.50;;;8.30;99.90;;;;;;5052733;28;20481;-71
2023/01/21 12:57:40;;;;;;;15.60;6.78;;;7.90;99.90;;;;;;5054074;28;20047;-71
2023/01/21 13:00:09;;;;;;;9.27;4.57;;;6.50;99.90;;;;;;5053941;28;20383;-72
2023/01/21 13:03:12;;;;;;;1.27;1.17;;;5.70;99.90;;;;;;5053952;28;20033;-72
2023/01/21 13:06:01;;;;;;;6.85;5.47;;;5.60;99.90;;;;;;5040202;28;20083;-73
2023/01/21 13:09:21;;;;;;;2.55;1.83;;;5.20;99.90;;;;;;5052081;28;20033;-72
2023/01/21 13:12:13;;;;;;;4.38;3.13;;;5.30;99.90;;;;;;5014823;28;20454;-72
2023/01/21 13:14:41;;;;;;;14.80;3.60;;;6.60;99.90;;;;;;5051717;28;20051;-72
2023/01/21 13:17:22;;;;;;;26.98;6.97;;;7.50;99.90;;;;;;5053502;28;20021;-72
2023/01/21 13:19:49;;;;;;;19.90;5.03;;;7.60;99.90;;;;;;5053958;28;20037;-72